Time;durP1;ratioP1;P1;durP2;ratioP2;P2;SDS_P1;SDS_P2;PMS_P1;PMS_P2;Temp;Humidity;BMP_temperature;BMP_pressure;BME280_temperature;BME280_humidity;BME280_pressure;Samples;Min_cycle;Max_cycle;Signal;HPM_P1;HPM_P2
2022/06/21 00:02:21;;;;;;;1.90;1.80;;;18.30;96.50;;;;;;4967498;28;20654;-61
2022/06/21 00:04:47;;;;;;;4.33;1.80;;;18.20;96.70;;;;;;4970593;28;20274;-61
2022/06/21 00:07:20;;;;;;;2.03;1.50;;;18.10;96.80;;;;;;4973138;28;20181;-61
2022/06/21 00:09:45;;;;;;;1.70;1.60;;;18.30;97.00;;;;;;4973198;28;20826;-61
2022/06/21 00:12:12;;;;;;;3.07;1.87;;;18.00;97.00;;;;;;4968510;28;20189;-61
2022/06/21 00:14:39;;;;;;;2.22;1.52;;;18.00;97.20;;;;;;4968711;28;20192;-61
2022/06/21 00:17:05;;;;;;;1.50;1.35;;;17.90;97.40;;;;;;4968864;28;20180;-60
2022/06/21 00:19:32;;;;;;;1.83;1.73;;;17.90;97.50;;;;;;4967700;28;20215;-60
2022/06/21 00:21:57;;;;;;;3.63;2.00;;;17.90;97.60;;;;;;4962639;28;20208;-61
2022/06/21 00:24:23;;;;;;;2.00;1.83;;;17.70;98.00;;;;;;4969875;28;20219;-60
2022/06/21 00:26:49;;;;;;;1.50;1.40;;;17.90;98.50;;;;;;4969512;28;20216;-61
2022/06/21 00:29:15;;;;;;;1.97;1.87;;;17.60;98.70;;;;;;4972419;28;20661;-61
2022/06/21 00:31:47;;;;;;;1.70;1.60;;;17.70;98.90;;;;;;4972882;28;20212;-60
2022/06/21 00:34:14;;;;;;;1.85;1.75;;;17.50;98.60;;;;;;4971892;28;20187;-60
2022/06/21 00:36:40;;;;;;;1.95;1.85;;;17.50;98.80;;;;;;4975052;28;20186;-60
2022/06/21 00:39:07;;;;;;;1.92;1.80;;;17.40;99.10;;;;;;4972555;28;20239;-60
2022/06/21 00:41:40;;;;;;;1.98;1.77;;;17.50;99.50;;;;;;4970811;28;20207;-60
2022/06/21 00:44:11;;;;;;;1.65;1.52;;;17.30;99.70;;;;;;4972783;28;20251;-60
2022/06/21 00:46:43;;;;;;;1.95;1.85;;;17.30;99.70;;;;;;4972352;28;20192;-60
2022/06/21 00:49:33;;;;;;;2.05;1.70;;;17.70;99.90;;;;;;4960624;28;20290;-60
2022/06/21 00:52:09;;;;;;;1.90;1.80;;;17.10;99.90;;;;;;4971018;28;20247;-61
2022/06/21 00:54:56;;;;;;;2.35;2.15;;;17.00;99.90;;;;;;4971821;28;20278;-61
2022/06/21 00:57:29;;;;;;;1.70;1.60;;;17.00;99.90;;;;;;4968423;28;20195;-60
2022/06/21 00:59:58;;;;;;;3.47;2.08;;;16.80;99.90;;;;;;4968692;28;20224;-61
2022/06/21 01:02:32;;;;;;;2.22;2.03;;;16.90;99.90;;;;;;4968576;28;20188;-60
2022/06/21 01:05:00;;;;;;;2.30;2.20;;;16.90;99.90;;;;;;4969343;28;20183;-60
2022/06/21 01:07:27;;;;;;;1.83;1.73;;;16.90;99.90;;;;;;4971854;28;20180;-60
2022/06/21 01:10:04;;;;;;;1.95;1.85;;;16.90;99.90;;;;;;4972028;28;20218;-61
2022/06/21 01:12:37;;;;;;;1.42;1.33;;;16.90;99.90;;;;;;4969072;28;20203;-61
2022/06/21 01:15:10;;;;;;;2.00;1.90;;;17.00;99.90;;;;;;4971802;28;20239;-60
2022/06/21 01:17:37;;;;;;;2.03;1.75;;;16.80;99.90;;;;;;4960045;28;20223;-61
2022/06/21 01:20:12;;;;;;;2.65;2.20;;;16.90;99.90;;;;;;4957860;28;20204;-61
2022/06/21 01:23:05;;;;;;;1.90;1.80;;;17.00;99.90;;;;;;4969797;28;20218;-60
2022/06/21 01:25:34;;;;;;;3.22;1.73;;;16.90;99.90;;;;;;4965588;28;20219;-60
2022/06/21 01:28:00;;;;;;;2.03;1.88;;;17.00;99.90;;;;;;4964541;28;20180;-60
2022/06/21 01:30:28;;;;;;;1.70;1.60;;;16.80;99.90;;;;;;4972213;28;20560;-60
2022/06/21 01:32:58;;;;;;;1.80;1.70;;;17.00;99.90;;;;;;4963971;28;20220;-60
2022/06/21 01:35:59;;;;;;;1.80;1.58;;;16.60;99.90;;;;;;4967520;28;20180;-60
2022/06/21 01:38:30;;;;;;;2.10;1.90;;;16.70;99.90;;;;;;4969602;28;20256;-60
2022/06/21 01:41:01;;;;;;;1.70;1.60;;;16.60;99.90;;;;;;4959852;28;20254;-60
2022/06/21 01:43:29;;;;;;;2.00;1.80;;;16.60;99.90;;;;;;4966106;28;20172;-60
2022/06/21 01:46:00;;;;;;;3.38;2.60;;;16.60;99.90;;;;;;4971167;28;20591;-60
2022/06/21 01:48:31;;;;;;;1.90;1.80;;;16.70;99.90;;;;;;4959656;28;20208;-60
2022/06/21 01:51:05;;;;;;;2.00;1.90;;;16.60;99.90;;;;;;4971724;28;20208;-61
2022/06/21 01:53:32;;;;;;;2.40;2.20;;;16.60;99.90;;;;;;4971460;28;20608;-60
2022/06/21 01:56:21;;;;;;;1.80;1.70;;;16.70;99.90;;;;;;4970949;28;20206;-60
2022/06/21 01:58:55;;;;;;;1.40;1.30;;;16.80;99.70;;;;;;4970347;28;20363;-61
2022/06/21 02:01:26;;;;;;;1.77;1.67;;;16.90;98.50;;;;;;4970819;28;20207;-61
2022/06/21 02:03:56;;;;;;;3.95;2.10;;;16.90;98.50;;;;;;4958388;28;20211;-60
2022/06/21 02:06:25;;;;;;;2.05;1.92;;;17.00;98.50;;;;;;4971427;28;20267;-61
2022/06/21 02:08:59;;;;;;;1.95;1.50;;;17.10;98.50;;;;;;4975169;28;20196;-61
2022/06/21 02:11:42;;;;;;;2.20;2.00;;;17.00;98.30;;;;;;4974689;28;20208;-61
2022/06/21 02:14:28;;;;;;;1.70;1.58;;;17.00;98.50;;;;;;4970765;28;20203;-61
2022/06/21 02:17:04;;;;;;;1.85;1.65;;;16.90;98.30;;;;;;4974459;28;20188;-61
2022/06/21 02:19:45;;;;;;;2.55;1.50;;;17.00;97.80;;;;;;4970735;28;20274;-61
2022/06/21 02:22:20;;;;;;;2.00;1.85;;;17.10;98.10;;;;;;4974379;28;20192;-60
2022/06/21 02:24:46;;;;;;;1.80;1.70;;;16.90;97.70;;;;;;4974081;28;20186;-61
2022/06/21 02:27:15;;;;;;;2.00;1.80;;;16.70;98.30;;;;;;4965764;28;20204;-61
2022/06/21 02:29:43;;;;;;;2.00;1.90;;;16.80;98.60;;;;;;4962604;28;20204;-60
2022/06/21 02:32:24;;;;;;;1.60;1.50;;;16.50;98.40;;;;;;4973153;28;20575;-61
2022/06/21 02:34:54;;;;;;;1.75;1.65;;;16.60;99.20;;;;;;4978947;28;20188;-61
2022/06/21 02:37:20;;;;;;;4.13;1.85;;;16.60;99.40;;;;;;4976837;28;20191;-61
2022/06/21 02:39:47;;;;;;;1.90;1.70;;;16.60;99.50;;;;;;4973350;28;20251;-60
2022/06/21 02:42:31;;;;;;;2.22;1.90;;;16.40;98.90;;;;;;4972093;28;20192;-60
2022/06/21 02:45:07;;;;;;;3.15;2.03;;;16.50;98.70;;;;;;4974774;28;20287;-61
2022/06/21 02:47:41;;;;;;;2.00;1.90;;;16.50;98.60;;;;;;4969081;28;20177;-60
2022/06/21 02:50:20;;;;;;;2.10;1.90;;;16.40;98.60;;;;;;4973863;28;20212;-61
2022/06/21 02:52:46;;;;;;;1.70;1.60;;;16.40;98.70;;;;;;4974975;28;20180;-60
2022/06/21 02:55:21;;;;;;;1.83;1.73;;;16.30;98.90;;;;;;4964226;28;20239;-61
2022/06/21 02:57:55;;;;;;;2.15;2.00;;;16.20;99.20;;;;;;4970252;28;20187;-60
2022/06/21 03:00:23;;;;;;;2.90;2.70;;;16.30;99.50;;;;;;4975096;28;20208;-60
2022/06/21 03:02:49;;;;;;;3.17;2.42;;;16.10;99.20;;;;;;4972676;28;20227;-60
2022/06/21 03:05:19;;;;;;;2.73;1.90;;;16.00;99.40;;;;;;4971735;28;20200;-60
2022/06/21 03:07:53;;;;;;;2.08;1.98;;;16.10;98.90;;;;;;4968562;28;20531;-61
2022/06/21 03:10:23;;;;;;;2.20;2.00;;;16.20;99.10;;;;;;4973978;28;20216;-61
2022/06/21 03:12:54;;;;;;;2.80;2.30;;;16.00;99.30;;;;;;4972873;28;20184;-60
2022/06/21 03:15:20;;;;;;;1.90;1.80;;;16.30;99.50;;;;;;4971986;28;20181;-60
2022/06/21 03:17:54;;;;;;;3.00;1.93;;;16.00;99.30;;;;;;4969321;28;20328;-61
2022/06/21 03:20:21;;;;;;;2.10;2.00;;;15.90;99.20;;;;;;4973663;28;21094;-60
2022/06/21 03:22:49;;;;;;;2.65;2.28;;;15.90;99.50;;;;;;4973701;28;20188;-60
2022/06/21 03:25:27;;;;;;;2.67;1.92;;;16.10;99.50;;;;;;4973548;28;20616;-60
2022/06/21 03:28:01;;;;;;;1.98;1.88;;;15.90;99.70;;;;;;4972083;28;20191;-61
2022/06/21 03:30:34;;;;;;;1.85;1.75;;;15.70;99.90;;;;;;4973940;28;20211;-60
2022/06/21 03:33:01;;;;;;;3.78;2.13;;;15.70;99.90;;;;;;4972679;28;20286;-61
2022/06/21 03:35:30;;;;;;;2.75;2.00;;;15.70;99.90;;;;;;4973856;28;20245;-60
2022/06/21 03:37:56;;;;;;;2.13;1.92;;;15.90;99.90;;;;;;4972549;28;20660;-61
2022/06/21 03:43:26;;;;;;;3.47;1.60;;;15.90;99.70;;;;;;4966057;28;20211;-61
2022/06/21 03:45:54;;;;;;;4.30;2.55;;;16.20;99.60;;;;;;4973718;28;20669;-60
2022/06/21 03:48:33;;;;;;;1.90;1.80;;;16.40;99.70;;;;;;4968661;28;20192;-60
2022/06/21 03:51:08;;;;;;;2.75;2.17;;;16.30;99.90;;;;;;4972441;28;20212;-60
2022/06/21 03:53:51;;;;;;;2.13;1.80;;;16.10;99.90;;;;;;4964311;28;20226;-60
2022/06/21 03:56:29;;;;;;;2.30;2.10;;;16.10;99.90;;;;;;4965762;28;20196;-60
2022/06/21 03:59:08;;;;;;;2.22;2.13;;;15.90;99.90;;;;;;4972361;28;20207;-60
2022/06/21 04:01:36;;;;;;;2.15;2.00;;;15.80;99.90;;;;;;4973327;28;20693;-61
2022/06/21 04:04:20;;;;;;;2.20;2.00;;;15.70;99.90;;;;;;4965096;28;20184;-60
2022/06/21 04:06:59;;;;;;;4.40;2.30;;;16.00;99.90;;;;;;4970573;28;20184;-60
2022/06/21 04:09:47;;;;;;;2.17;2.08;;;15.80;99.90;;;;;;4969587;28;20279;-60
2022/06/21 04:12:31;;;;;;;2.42;2.22;;;15.70;99.90;;;;;;4969618;28;20279;-66
2022/06/21 04:15:30;;;;;;;2.25;2.05;;;16.20;99.90;;;;;;4965249;28;20678;-71
2022/06/21 04:17:58;;;;;;;7.65;2.25;;;16.10;99.90;;;;;;4970951;28;20266;-71
2022/06/21 04:20:34;;;;;;;2.47;2.35;;;16.40;99.90;;;;;;4965571;28;20247;-72
2022/06/21 04:23:27;;;;;;;2.83;2.08;;;16.60;99.50;;;;;;4962476;28;20187;-80
2022/06/21 04:26:07;;;;;;;1.75;1.65;;;17.20;99.90;;;;;;4970290;28;20685;-67
2022/06/21 04:28:44;;;;;;;2.55;2.35;;;18.00;99.10;;;;;;4968126;28;20204;-66
2022/06/21 04:31:16;;;;;;;2.35;1.60;;;18.20;94.00;;;;;;4965089;28;20204;-67
2022/06/21 04:33:58;;;;;;;1.70;1.60;;;18.50;96.60;;;;;;4957696;28;20656;-66
2022/06/21 04:36:35;;;;;;;1.80;1.70;;;18.60;94.40;;;;;;4964802;28;20653;-64
2022/06/21 04:39:08;;;;;;;2.53;1.70;;;18.90;93.90;;;;;;4969822;28;20215;-64
2022/06/21 04:41:36;;;;;;;2.97;1.85;;;18.80;91.10;;;;;;4967681;28;20209;-67
2022/06/21 04:44:12;;;;;;;4.95;2.30;;;18.70;92.00;;;;;;4969655;28;20646;-63
2022/06/21 04:47:19;;;;;;;2.55;1.85;;;19.10;92.60;;;;;;4965536;28;20215;-65
2022/06/21 04:49:50;;;;;;;2.50;2.08;;;19.10;86.20;;;;;;4967242;28;20681;-66
2022/06/21 04:52:24;;;;;;;2.50;2.30;;;19.10;91.70;;;;;;4970382;28;20194;-65
2022/06/21 04:54:49;;;;;;;2.88;1.90;;;19.20;87.30;;;;;;4963033;28;20592;-65
2022/06/21 04:57:28;;;;;;;2.03;1.93;;;19.50;91.00;;;;;;4965966;28;20278;-69
2022/06/21 05:00:03;;;;;;;2.95;2.65;;;19.60;89.10;;;;;;4969021;28;20478;-67
2022/06/21 05:02:38;;;;;;;2.95;2.03;;;19.90;89.70;;;;;;4961745;28;20311;-69
2022/06/21 05:05:10;;;;;;;3.63;2.63;;;19.70;85.50;;;;;;4966055;28;20180;-67
2022/06/21 05:07:51;;;;;;;3.58;2.97;;;19.50;82.00;;;;;;4969359;28;20327;-72
2022/06/21 05:10:22;;;;;;;2.80;2.17;;;19.30;86.20;;;;;;4962455;28;20195;-67
2022/06/21 05:12:51;;;;;;;3.80;1.70;;;19.60;87.50;;;;;;4964832;28;20188;-65
2022/06/21 05:15:22;;;;;;;2.65;2.42;;;19.80;88.20;;;;;;4970867;28;20346;-67
2022/06/21 05:18:23;;;;;;;2.45;2.10;;;19.90;83.50;;;;;;4967308;28;20177;-67
2022/06/21 05:20:57;;;;;;;4.75;1.90;;;20.00;86.80;;;;;;4963946;28;20204;-68
2022/06/21 05:23:24;;;;;;;1.92;1.73;;;20.40;87.70;;;;;;4965792;28;20558;-64
2022/06/21 05:25:51;;;;;;;3.05;1.90;;;20.50;84.80;;;;;;4967939;28;20189;-65
2022/06/21 05:28:52;;;;;;;1.73;1.63;;;20.80;84.30;;;;;;4966776;28;20254;-67
2022/06/21 05:31:23;;;;;;;2.42;2.17;;;21.00;82.90;;;;;;4958298;28;20590;-67
2022/06/21 05:33:51;;;;;;;2.58;1.70;;;21.10;82.30;;;;;;4963898;28;20252;-67
2022/06/21 05:36:53;;;;;;;14.98;13.48;;;21.20;82.10;;;;;;4968236;28;20198;-64
2022/06/21 05:39:23;;;;;;;13.48;12.27;;;21.30;81.80;;;;;;4968020;28;20717;-62
2022/06/21 05:41:52;;;;;;;13.35;10.93;;;21.50;80.60;;;;;;4969327;28;20745;-62
2022/06/21 05:44:36;;;;;;;45.55;41.13;;;21.70;79.60;;;;;;4965754;28;20267;-62
2022/06/21 05:47:10;;;;;;;4.10;2.93;;;21.90;78.30;;;;;;4966601;28;20187;-62
2022/06/21 05:49:39;;;;;;;10.18;7.57;;;22.10;78.30;;;;;;4963428;28;20534;-62
2022/06/21 05:52:10;;;;;;;2.65;2.10;;;22.10;78.10;;;;;;4961249;28;20181;-62
2022/06/21 05:54:42;;;;;;;2.00;1.60;;;22.10;78.50;;;;;;4963787;28;20279;-62
2022/06/21 05:57:11;;;;;;;4.10;1.98;;;22.20;78.80;;;;;;4966981;28;21131;-73
2022/06/21 05:59:36;;;;;;;2.05;1.77;;;22.40;74.10;;;;;;4960596;28;20306;-68
2022/06/21 06:02:11;;;;;;;3.10;1.97;;;22.20;71.00;;;;;;4966961;28;20216;-70
2022/06/21 06:05:11;;;;;;;4.30;2.00;;;21.60;71.50;;;;;;4966683;28;20255;-71
2022/06/21 06:07:51;;;;;;;2.30;2.10;;;21.20;71.70;;;;;;4966535;28;20284;-67
2022/06/21 06:10:20;;;;;;;1.92;1.80;;;20.80;72.00;;;;;;4968146;28;20207;-72
2022/06/21 06:12:50;;;;;;;3.10;2.17;;;20.50;73.60;;;;;;4963564;28;20184;-60
2022/06/21 06:15:19;;;;;;;2.60;2.10;;;20.30;73.40;;;;;;4965592;28;20188;-68
2022/06/21 06:17:56;;;;;;;2.28;2.00;;;20.00;75.90;;;;;;4967223;28;20263;-70
2022/06/21 06:20:28;;;;;;;3.25;1.80;;;19.80;76.00;;;;;;4969047;28;20220;-74
2022/06/21 06:23:02;;;;;;;2.55;2.00;;;19.80;80.00;;;;;;4967711;28;20189;-68
2022/06/21 06:25:34;;;;;;;2.25;2.15;;;19.70;77.00;;;;;;4966236;28;20257;-71
2022/06/21 06:28:10;;;;;;;3.28;2.45;;;19.60;77.50;;;;;;4966658;28;20334;-70
2022/06/21 06:30:55;;;;;;;2.38;1.83;;;19.80;80.60;;;;;;4968908;28;20856;-62
2022/06/21 06:33:26;;;;;;;2.92;2.13;;;19.90;76.70;;;;;;4967311;28;20255;-64
2022/06/21 06:35:54;;;;;;;2.58;2.10;;;19.90;76.70;;;;;;4969138;28;20176;-63
2022/06/21 06:38:20;;;;;;;2.60;2.40;;;19.90;76.70;;;;;;4968456;28;20288;-63
2022/06/21 06:40:54;;;;;;;3.20;2.42;;;19.90;77.30;;;;;;4968327;28;20200;-61
2022/06/21 06:43:26;;;;;;;2.45;2.00;;;19.90;78.80;;;;;;4970324;28;20204;-63
2022/06/21 06:45:56;;;;;;;2.65;2.20;;;19.90;80.00;;;;;;4967373;28;20263;-62
2022/06/21 06:48:32;;;;;;;3.10;2.30;;;19.90;80.40;;;;;;4966827;28;20241;-63
2022/06/21 06:51:15;;;;;;;2.42;2.22;;;20.00;80.50;;;;;;4968151;28;20279;-64
2022/06/21 06:53:48;;;;;;;3.28;2.38;;;20.10;79.40;;;;;;4969618;28;20196;-63
2022/06/21 06:56:26;;;;;;;3.30;2.40;;;20.30;79.50;;;;;;4969606;28;20262;-63
2022/06/21 06:59:11;;;;;;;2.22;2.03;;;20.50;79.40;;;;;;4972662;28;20208;-63
2022/06/21 07:02:18;;;;;;;3.05;2.28;;;20.80;78.90;;;;;;4973057;28;20204;-62
2022/06/21 07:04:48;;;;;;;2.65;2.45;;;21.30;78.10;;;;;;4967530;28;20203;-64
2022/06/21 07:07:20;;;;;;;3.70;2.58;;;21.00;76.70;;;;;;4974018;28;20176;-64
2022/06/21 07:09:55;;;;;;;4.43;2.77;;;22.30;74.80;;;;;;4972748;28;20228;-65
2022/06/21 07:12:27;;;;;;;3.00;1.83;;;24.10;69.50;;;;;;4974303;28;20605;-63
2022/06/21 07:14:54;;;;;;;2.43;2.23;;;26.10;63.80;;;;;;4970918;28;20976;-64
2022/06/21 07:17:39;;;;;;;2.30;2.10;;;27.70;59.30;;;;;;4969897;28;21290;-64
2022/06/21 07:20:26;;;;;;;3.87;2.43;;;28.70;55.30;;;;;;4974058;28;20477;-62
2022/06/21 07:22:55;;;;;;;2.50;2.30;;;29.40;52.10;;;;;;4968230;28;20436;-63
2022/06/21 07:25:40;;;;;;;3.00;1.93;;;28.30;51.20;;;;;;4966315;28;20450;-68
2022/06/21 07:28:20;;;;;;;2.93;2.00;;;27.10;53.40;;;;;;4967941;28;20439;-69
2022/06/21 07:30:48;;;;;;;3.30;2.50;;;27.20;53.80;;;;;;4971788;28;20467;-64
2022/06/21 07:33:38;;;;;;;2.50;2.30;;;27.10;54.60;;;;;;4975718;28;20434;-63
2022/06/21 07:36:12;;;;;;;2.27;2.00;;;28.80;53.00;;;;;;4965578;28;20442;-63
2022/06/21 07:38:41;;;;;;;1.90;1.80;;;29.30;50.50;;;;;;4972152;28;20609;-64
2022/06/21 07:41:13;;;;;;;3.70;2.33;;;29.20;50.20;;;;;;4971071;28;20469;-63
2022/06/21 07:44:02;;;;;;;3.57;2.77;;;28.70;51.00;;;;;;4968035;28;20498;-64
2022/06/21 07:46:32;;;;;;;3.37;2.20;;;28.00;51.90;;;;;;4969580;28;20444;-64
2022/06/21 07:49:14;;;;;;;2.90;2.07;;;28.00;51.60;;;;;;4967563;28;20460;-63
2022/06/21 07:51:45;;;;;;;2.47;2.10;;;27.50;52.20;;;;;;4970454;28;20454;-64
2022/06/21 07:54:27;;;;;;;2.57;2.37;;;26.70;53.30;;;;;;4978501;28;20944;-63
2022/06/21 07:56:57;;;;;;;2.60;2.20;;;26.10;54.90;;;;;;4967872;28;20458;-63
2022/06/21 07:59:33;;;;;;;2.27;1.90;;;25.70;55.20;;;;;;4972219;28;20489;-63
2022/06/21 08:07:47;;;;;;;2.30;2.10;;;26.40;55.30;;;;;;4969788;28;20446;-68
2022/06/21 08:10:29;;;;;;;3.60;2.33;;;26.50;53.70;;;;;;4971955;28;20474;-63
2022/06/21 08:12:55;;;;;;;2.80;2.50;;;26.60;53.60;;;;;;4971825;28;20978;-63
2022/06/21 08:15:26;;;;;;;2.77;2.47;;;26.40;53.20;;;;;;4968609;28;20458;-66
2022/06/21 08:18:06;;;;;;;2.43;2.20;;;26.10;54.20;;;;;;4970399;28;20570;-65
2022/06/21 08:20:37;;;;;;;4.23;2.83;;;25.40;55.20;;;;;;4971139;28;20528;-66
2022/06/21 08:23:10;;;;;;;2.87;2.67;;;24.80;56.10;;;;;;4967685;28;20462;-64
2022/06/21 08:25:40;;;;;;;3.10;2.63;;;24.20;57.30;;;;;;4967546;28;20439;-65
2022/06/21 08:28:17;;;;;;;3.03;2.73;;;23.90;58.20;;;;;;4971488;28;20498;-64
2022/06/21 08:30:46;;;;;;;2.83;2.13;;;23.60;58.90;;;;;;4975168;28;20506;-65
2022/06/21 08:33:24;;;;;;;3.03;2.83;;;23.30;59.90;;;;;;4972479;28;20948;-65
2022/06/21 08:35:52;;;;;;;2.40;2.20;;;23.10;60.20;;;;;;4969618;28;20453;-63
2022/06/21 08:38:28;;;;;;;2.97;2.70;;;23.10;61.40;;;;;;4969397;28;20879;-60
2022/06/21 08:40:59;;;;;;;3.23;2.60;;;23.00;61.90;;;;;;4963600;28;20840;-60
2022/06/21 08:44:03;;;;;;;2.43;2.20;;;22.90;62.50;;;;;;4971166;28;20826;-60
2022/06/21 08:46:47;;;;;;;2.33;2.13;;;22.80;62.70;;;;;;4963231;28;20793;-61
2022/06/21 08:49:45;;;;;;;2.63;2.43;;;23.00;62.90;;;;;;4965230;28;20481;-61
2022/06/21 08:52:49;;;;;;;2.70;2.40;;;22.90;62.90;;;;;;4966647;28;20592;-61
2022/06/21 08:55:33;;;;;;;3.47;2.40;;;22.80;63.90;;;;;;4964614;28;20443;-60
2022/06/21 08:58:27;;;;;;;2.43;2.23;;;22.60;64.70;;;;;;4967567;28;20502;-61
2022/06/21 09:01:10;;;;;;;3.97;2.90;;;22.40;66.50;;;;;;4958306;28;20472;-61
2022/06/21 09:03:59;;;;;;;2.78;2.58;;;22.10;67.00;;;;;;4956672;28;20471;-63
2022/06/21 09:06:52;;;;;;;3.23;2.50;;;22.00;71.60;;;;;;4969114;28;20199;-69
2022/06/21 09:09:24;;;;;;;5.07;2.72;;;22.00;69.60;;;;;;4963109;28;20448;-77
2022/06/21 09:12:19;;;;;;;5.00;2.67;;;22.20;70.00;;;;;;4967612;28;20202;-74
2022/06/21 09:14:53;;;;;;;3.10;2.60;;;22.60;68.60;;;;;;4967567;28;20203;-67
2022/06/21 09:17:27;;;;;;;4.43;3.23;;;23.30;67.30;;;;;;4962080;28;21486;-67
2022/06/21 09:20:05;;;;;;;3.10;2.80;;;23.40;65.70;;;;;;4966819;28;21059;-68
2022/06/21 09:23:19;;;;;;;3.83;2.70;;;23.70;64.90;;;;;;4967964;28;20995;-65
2022/06/21 09:26:17;;;;;;;3.30;3.00;;;23.90;65.00;;;;;;4969064;28;20442;-65
2022/06/21 09:28:51;;;;;;;2.90;2.63;;;23.90;64.00;;;;;;4962562;28;20890;-65
2022/06/21 09:31:40;;;;;;;4.43;2.73;;;24.70;63.70;;;;;;4970748;28;20460;-62
2022/06/21 09:34:14;;;;;;;4.60;4.20;;;26.20;60.10;;;;;;4967220;28;20549;-62
2022/06/21 09:37:15;;;;;;;3.57;3.17;;;27.20;56.90;;;;;;4970374;28;20765;-63
2022/06/21 09:40:02;;;;;;;3.10;2.80;;;27.80;54.60;;;;;;4976841;28;20630;-62
2022/06/21 09:42:34;;;;;;;3.90;3.50;;;28.50;54.60;;;;;;4966095;28;20451;-62
2022/06/21 09:45:24;;;;;;;3.37;3.17;;;29.80;51.50;;;;;;4963259;28;20486;-62
2022/06/21 09:47:57;;;;;;;2.83;2.70;;;29.80;49.90;;;;;;4955687;28;20443;-63
2022/06/21 09:50:32;;;;;;;3.90;2.90;;;30.90;50.20;;;;;;4970922;28;20460;-62
2022/06/21 09:53:31;;;;;;;3.80;2.40;;;31.30;47.90;;;;;;4970094;28;20449;-62
2022/06/21 09:55:59;;;;;;;3.60;2.97;;;32.10;46.70;;;;;;4970375;28;20446;-63
2022/06/21 09:58:44;;;;;;;3.13;2.80;;;32.70;45.80;;;;;;4965348;28;20467;-63
2022/06/21 10:01:47;;;;;;;2.90;2.70;;;33.40;45.00;;;;;;4965748;28;21010;-63
2022/06/21 10:04:30;;;;;;;3.10;2.90;;;33.60;43.90;;;;;;4964897;28;20443;-63
2022/06/21 10:07:07;;;;;;;6.57;2.50;;;33.20;44.00;;;;;;4969315;28;20900;-63
2022/06/21 10:09:54;;;;;;;3.43;2.60;;;33.10;43.80;;;;;;4970468;28;20447;-63
2022/06/21 10:12:29;;;;;;;3.30;3.00;;;32.70;44.40;;;;;;4960619;28;20928;-64
2022/06/21 10:15:06;;;;;;;4.40;3.67;;;33.20;44.10;;;;;;4967965;28;20974;-63
2022/06/21 10:17:48;;;;;;;3.87;2.50;;;33.20;44.60;;;;;;4967767;28;20443;-63
2022/06/21 10:20:32;;;;;;;3.10;2.80;;;32.50;44.10;;;;;;4967301;28;20470;-63
2022/06/21 10:23:35;;;;;;;2.70;2.60;;;32.90;44.30;;;;;;4968796;28;20439;-63
2022/06/21 10:26:24;;;;;;;2.53;2.33;;;33.40;43.40;;;;;;4966879;28;20446;-63
2022/06/21 10:29:04;;;;;;;2.63;2.43;;;32.70;43.90;;;;;;4979155;28;20920;-63
2022/06/21 10:31:39;;;;;;;3.87;3.20;;;32.50;44.50;;;;;;4982978;28;20455;-63
2022/06/21 10:34:18;;;;;;;3.17;2.93;;;33.30;43.70;;;;;;4970049;28;20451;-63
2022/06/21 10:36:56;;;;;;;3.30;2.90;;;34.10;42.20;;;;;;4973489;28;20446;-63
2022/06/21 10:39:25;;;;;;;2.50;2.30;;;33.70;42.50;;;;;;4972682;28;20477;-64
2022/06/21 10:45:06;;;;;;;3.03;2.57;;;34.00;42.50;;;;;;4972782;28;21165;-66
2022/06/21 10:47:38;;;;;;;3.23;2.93;;;33.40;43.20;;;;;;4970050;28;21107;-65
2022/06/21 10:50:32;;;;;;;2.90;2.70;;;33.50;43.00;;;;;;4972887;28;20838;-66
2022/06/21 10:53:01;;;;;;;3.47;2.90;;;33.90;43.00;;;;;;4973145;28;20439;-63
2022/06/21 10:55:45;;;;;;;3.33;3.03;;;33.90;42.40;;;;;;4973809;28;20450;-63
2022/06/21 10:58:29;;;;;;;3.80;3.50;;;32.80;44.80;;;;;;4971745;28;20453;-63
2022/06/21 11:01:21;;;;;;;3.60;3.00;;;33.40;44.40;;;;;;4972118;28;20459;-63
2022/06/21 11:03:53;;;;;;;3.77;3.47;;;34.00;44.00;;;;;;4966961;28;20439;-63
2022/06/21 11:06:27;;;;;;;4.83;3.20;;;34.00;43.40;;;;;;4973113;28;20932;-63
2022/06/21 11:09:08;;;;;;;3.57;3.37;;;34.40;42.70;;;;;;4968253;28;20451;-63
2022/06/21 11:11:55;;;;;;;3.30;3.00;;;35.00;42.40;;;;;;4973083;28;20450;-63
2022/06/21 11:14:24;;;;;;;5.30;3.50;;;34.70;42.60;;;;;;4972547;28;20447;-66
2022/06/21 11:17:04;;;;;;;3.73;3.30;;;35.00;42.50;;;;;;4972324;28;20999;-64
2022/06/21 11:19:54;;;;;;;4.23;3.20;;;34.50;42.50;;;;;;4968404;28;20471;-64
2022/06/21 11:22:28;;;;;;;3.70;3.30;;;33.30;44.70;;;;;;4972470;28;20479;-64
2022/06/21 11:25:08;;;;;;;2.97;2.77;;;33.00;45.00;;;;;;4965319;28;20977;-64
2022/06/21 11:27:43;;;;;;;3.60;3.27;;;32.90;45.10;;;;;;4971509;28;20458;-64
2022/06/21 11:30:41;;;;;;;4.37;3.73;;;32.30;46.40;;;;;;4974878;28;20472;-64
2022/06/21 11:33:14;;;;;;;3.67;3.37;;;31.50;48.60;;;;;;4964438;28;20448;-64
2022/06/21 11:36:13;;;;;;;4.37;4.00;;;30.60;49.80;;;;;;4967380;28;20952;-64
2022/06/21 11:38:48;;;;;;;3.87;3.50;;;29.80;51.30;;;;;;4967610;28;20467;-64
2022/06/21 11:44:51;;;;;;;7.33;4.00;;;28.90;54.60;;;;;;4967297;28;20436;-67
2022/06/21 11:47:34;;;;;;;3.80;3.50;;;28.50;55.70;;;;;;4967518;28;20441;-65
2022/06/21 11:50:20;;;;;;;4.83;4.43;;;28.70;56.40;;;;;;4972526;28;20842;-63
2022/06/21 11:53:01;;;;;;;4.80;4.10;;;28.70;55.50;;;;;;4969419;28;20438;-70
2022/06/21 11:55:31;;;;;;;4.40;3.70;;;29.20;55.10;;;;;;4973424;28;20471;-66
2022/06/21 11:58:07;;;;;;;3.73;3.40;;;29.10;54.70;;;;;;4962230;28;20438;-67
2022/06/21 12:00:45;;;;;;;4.23;3.83;;;29.20;55.10;;;;;;4971433;28;20584;-70
2022/06/21 12:03:34;;;;;;;4.43;4.03;;;29.30;55.50;;;;;;4967516;28;20515;-70
2022/06/21 12:06:10;;;;;;;4.80;4.40;;;28.70;56.00;;;;;;4964180;28;20425;-73
2022/06/21 12:09:06;;;;;;;4.57;4.07;;;28.50;56.50;;;;;;4967619;28;20441;-75
2022/06/21 12:11:44;;;;;;;4.83;4.03;;;28.40;57.50;;;;;;4964538;28;20547;-72
2022/06/21 12:14:28;;;;;;;7.77;4.73;;;28.60;57.90;;;;;;4972350;28;20515;-68
2022/06/21 12:17:04;;;;;;;4.57;4.13;;;28.40;58.20;;;;;;4963626;28;20435;-72
2022/06/21 12:19:41;;;;;;;5.17;4.00;;;28.50;58.00;;;;;;4956261;28;20464;-69
2022/06/21 12:22:06;;;;;;;4.70;4.10;;;28.50;58.20;;;;;;4962547;28;21019;-69
2022/06/21 12:24:33;;;;;;;4.67;4.37;;;28.50;58.30;;;;;;4971344;28;20429;-68
2022/06/21 12:26:59;;;;;;;4.77;4.37;;;28.30;59.00;;;;;;4968795;28;20184;-74
2022/06/21 12:29:25;;;;;;;5.10;4.40;;;28.30;59.00;;;;;;4966220;28;20453;-73
2022/06/21 12:31:55;;;;;;;4.70;4.30;;;28.30;58.90;;;;;;4970653;28;20683;-73
2022/06/21 12:34:41;;;;;;;9.53;4.60;;;28.20;59.60;;;;;;4957279;28;20544;-70
2022/06/21 12:37:20;;;;;;;5.10;4.60;;;28.10;59.60;;;;;;4963710;28;20953;-70
2022/06/21 12:39:54;;;;;;;4.60;4.20;;;27.90;60.10;;;;;;4964837;28;20469;-72
2022/06/21 12:42:26;;;;;;;6.70;4.33;;;27.80;61.20;;;;;;4967748;28;20482;-71
2022/06/21 12:44:51;;;;;;;6.13;4.43;;;27.60;61.50;;;;;;4969760;28;20894;-73
2022/06/21 12:47:32;;;;;;;4.80;4.40;;;27.50;62.60;;;;;;4970408;28;20586;-73
2022/06/21 12:50:32;;;;;;;5.93;5.33;;;27.30;62.80;;;;;;4967257;28;20347;-66
2022/06/21 12:53:06;;;;;;;5.57;5.17;;;27.20;63.90;;;;;;4966356;28;20502;-65
2022/06/21 12:56:09;;;;;;;4.80;4.40;;;27.00;64.60;;;;;;4969054;28;21010;-65
2022/06/21 12:58:56;;;;;;;5.23;4.77;;;27.00;65.20;;;;;;4969124;28;20466;-65
2022/06/21 13:01:30;;;;;;;4.90;4.50;;;27.10;65.30;;;;;;4968075;28;20467;-65
2022/06/21 13:03:55;;;;;;;5.70;5.20;;;27.20;65.10;;;;;;4955148;28;20446;-65
2022/06/21 13:06:30;;;;;;;4.83;4.43;;;27.20;66.30;;;;;;4970233;28;20431;-65
2022/06/21 13:09:07;;;;;;;5.20;4.70;;;27.20;66.10;;;;;;4969273;28;20198;-65
2022/06/21 13:12:09;;;;;;;4.60;4.30;;;27.20;65.80;;;;;;4961158;28;20460;-65
2022/06/21 13:14:38;;;;;;;5.43;4.90;;;27.10;66.20;;;;;;4962039;28;20831;-65
2022/06/21 13:17:16;;;;;;;6.43;4.60;;;27.20;66.30;;;;;;4968127;28;20530;-65
2022/06/21 13:19:45;;;;;;;5.40;5.00;;;27.20;67.50;;;;;;4962867;28;20566;-65
2022/06/21 13:22:27;;;;;;;5.27;4.70;;;27.20;67.40;;;;;;4963496;28;20520;-65
2022/06/21 13:25:14;;;;;;;5.30;4.90;;;27.30;67.80;;;;;;4965770;28;21134;-65
2022/06/21 13:27:55;;;;;;;7.20;4.73;;;27.40;67.10;;;;;;4970552;28;20875;-68
2022/06/21 13:30:54;;;;;;;5.90;5.30;;;27.50;67.00;;;;;;4972385;28;20968;-73
2022/06/21 13:33:28;;;;;;;5.77;5.13;;;27.30;67.10;;;;;;4970386;28;20446;-71
2022/06/21 13:36:06;;;;;;;5.10;4.73;;;27.10;68.10;;;;;;4970084;28;20787;-69
2022/06/21 13:38:53;;;;;;;6.90;5.17;;;27.30;68.50;;;;;;4966620;28;20481;-68
2022/06/21 13:44:49;;;;;;;5.53;5.03;;;27.40;68.30;;;;;;4972142;28;22324;-73
2022/06/21 13:47:28;;;;;;;5.70;5.20;;;27.70;68.60;;;;;;4967651;28;20518;-71
2022/06/21 13:50:03;;;;;;;6.40;5.90;;;27.80;66.80;;;;;;4960968;28;20605;-69
2022/06/21 13:52:52;;;;;;;5.73;5.33;;;27.80;66.90;;;;;;4973066;28;20443;-67
2022/06/21 13:55:45;;;;;;;5.60;4.97;;;27.80;67.90;;;;;;4965516;28;20561;-72